createdAt,value
2019-02-06T00:00:35.565Z,30.8
2019-02-06T00:01:18.989Z,30.8
2019-02-06T00:02:08.483Z,30.8
2019-02-06T00:03:02.165Z,30.7
2019-02-06T00:03:48.600Z,30.6
2019-02-06T00:04:39.473Z,30.6
2019-02-06T00:05:29.026Z,29.6
2019-02-06T00:06:18.558Z,28.9
2019-02-06T00:07:08.932Z,28.4
2019-02-06T00:07:58.767Z,28.2
2019-02-06T00:08:51.567Z,27.9
2019-02-06T00:09:39.300Z,27.6
2019-02-06T00:10:29.584Z,27.8
2019-02-06T00:11:19.170Z,28.9
2019-02-06T00:12:09.391Z,29.7
2019-02-06T00:12:59.959Z,30.3
2019-02-06T00:13:49.907Z,30.7
2019-02-06T00:14:41.150Z,31
2019-02-06T00:15:29.027Z,31.3
2019-02-06T00:16:20.321Z,31.6
2019-02-06T00:17:09.006Z,31.9
2019-02-06T00:18:02.330Z,32.1
2019-02-06T00:18:49.890Z,32.4
2019-02-06T00:19:38.778Z,32.1
2019-02-06T00:20:30.369Z,31.4
2019-02-06T00:21:23.410Z,31.3
2019-02-06T00:22:09.922Z,31.1
2019-02-06T00:22:59.699Z,31.1
2019-02-06T00:23:53.047Z,31
2019-02-06T00:24:41.039Z,30.9
2019-02-06T00:25:29.766Z,30.8
2019-02-06T00:26:19.808Z,30.7
2019-02-06T00:27:10.531Z,30.7
2019-02-06T00:28:00.526Z,30.6
2019-02-06T00:28:50.028Z,30.6
2019-02-06T00:29:40.976Z,30.4
2019-02-06T00:30:30.413Z,29.6
2019-02-06T00:31:20.814Z,28.9
2019-02-06T00:32:10.926Z,28.4
2019-02-06T00:33:03.086Z,28.1
2019-02-06T00:33:51.268Z,27.9
2019-02-06T00:34:40.748Z,27.5
2019-02-06T00:35:33.541Z,27.9
2019-02-06T00:36:23.009Z,28.9
2019-02-06T00:37:11.073Z,29.9
2019-02-06T00:38:01.520Z,30.3
2019-02-06T00:38:51.282Z,30.7
2019-02-06T00:39:41.110Z,31
2019-02-06T00:40:31.940Z,31.3
2019-02-06T00:41:20.873Z,31.6
2019-02-06T00:42:14.050Z,31.9
2019-02-06T00:43:01.030Z,32.1
2019-02-06T00:43:51.040Z,32.4
2019-02-06T00:44:41.792Z,31.9
2019-02-06T00:45:32.965Z,31.4
2019-02-06T00:46:22.042Z,31.3
2019-02-06T00:47:12.419Z,31.1
2019-02-06T00:48:01.214Z,31
2019-02-06T00:48:52.005Z,30.9
2019-02-06T00:49:42.035Z,30.8
2019-02-06T00:50:31.974Z,30.8
2019-02-06T00:51:24.394Z,30.7
2019-02-06T00:52:12.032Z,30.6
2019-02-06T00:53:02.542Z,30.6
2019-02-06T00:53:52.148Z,30.2
2019-02-06T00:54:43.119Z,29.3
2019-02-06T00:55:32.569Z,28.7
2019-02-06T00:56:22.507Z,28.3
2019-02-06T00:57:13.547Z,28.1
2019-02-06T00:58:02.164Z,27.9
2019-02-06T00:58:52.404Z,27.6
2019-02-06T00:59:41.976Z,27.5
2019-02-06T01:00:35.145Z,28.6
2019-02-06T01:01:23.136Z,29.6
2019-02-06T01:02:12.999Z,30.1
2019-02-06T01:03:03.089Z,30.5
2019-02-06T01:03:53.169Z,30.9
2019-02-06T01:04:42.511Z,31.2
2019-02-06T01:05:45.909Z,31.5
2019-02-06T01:06:25.066Z,31.9
2019-02-06T01:07:13.412Z,32
2019-02-06T01:08:02.767Z,32.3
2019-02-06T01:08:53.941Z,32
2019-02-06T01:09:45.981Z,31.3
2019-02-06T01:10:33.566Z,31.2
2019-02-06T01:11:22.723Z,31.1
2019-02-06T01:12:13.180Z,31
2019-02-06T01:13:03.731Z,30.9
2019-02-06T01:13:53.307Z,30.8
2019-02-06T01:14:43.618Z,30.8
2019-02-06T01:15:35.824Z,30.7
2019-02-06T01:16:23.953Z,30.6
2019-02-06T01:17:13.675Z,30.6
2019-02-06T01:18:04.106Z,30.5
2019-02-06T01:18:54.798Z,30.1
2019-02-06T01:19:44.303Z,29.2
2019-02-06T01:20:33.918Z,28.6
2019-02-06T01:21:24.703Z,28.3
2019-02-06T01:22:13.923Z,28
2019-02-06T01:23:55.060Z,27.3
2019-02-06T01:24:47.098Z,28.2
2019-02-06T01:25:33.795Z,29.2
2019-02-06T01:26:24.468Z,29.9
2019-02-06T01:27:14.796Z,30.4
2019-02-06T01:28:04.960Z,30.8
2019-02-06T01:28:55.052Z,31.1
2019-02-06T01:29:44.354Z,31.4
2019-02-06T01:30:36.470Z,31.6
2019-02-06T01:31:25.254Z,31.9
2019-02-06T01:32:15.052Z,32.1
2019-02-06T01:33:04.867Z,32.4
2019-02-06T01:33:56.598Z,31.5
2019-02-06T01:34:45.542Z,31.3
2019-02-06T01:35:35.149Z,31.1
2019-02-06T01:36:25.624Z,31
2019-02-06T01:37:15.587Z,30.9
2019-02-06T01:38:04.881Z,30.8
2019-02-06T01:38:54.397Z,30.7
2019-02-06T01:39:47.661Z,30.7
2019-02-06T01:40:35.924Z,30.6
2019-02-06T01:41:25.741Z,30.6
2019-02-06T01:42:16.021Z,30.5
2019-02-06T01:43:04.993Z,30.5
2019-02-06T01:43:55.283Z,29.9
2019-02-06T01:44:46.015Z,29.1
2019-02-06T01:45:37.318Z,28.6
2019-02-06T01:46:26.034Z,28.1
2019-02-06T01:47:16.561Z,27.9
2019-02-06T01:48:05.348Z,27.7
2019-02-06T01:48:59.086Z,27.3
2019-02-06T01:49:49.088Z,28.4
2019-02-06T01:50:36.310Z,29.4
2019-02-06T01:51:26.690Z,30.1
2019-02-06T01:52:16.578Z,30.5
2019-02-06T01:53:05.660Z,30.9
2019-02-06T01:53:56.697Z,31.2
2019-02-06T01:54:48.673Z,31.4
2019-02-06T01:55:36.400Z,31.7
2019-02-06T01:56:26.829Z,32
2019-02-06T01:57:16.290Z,32.2
2019-02-06T01:58:08.203Z,32.2
2019-02-06T01:58:56.362Z,31.3
2019-02-06T01:59:46.535Z,31.2
2019-02-06T02:00:38.047Z,31.1
2019-02-06T02:01:27.390Z,31
2019-02-06T02:02:16.600Z,30.9
2019-02-06T02:03:07.610Z,30.8
2019-02-06T02:03:59.313Z,30.8
2019-02-06T02:04:47.436Z,30.6
2019-02-06T02:05:40.197Z,30.6
2019-02-06T02:06:27.259Z,30.6
2019-02-06T02:07:16.324Z,30.5
2019-02-06T02:08:06.787Z,29.7
2019-02-06T02:08:57.050Z,29
2019-02-06T02:09:49.005Z,28.6
2019-02-06T02:10:37.457Z,28.2
2019-02-06T02:11:27.509Z,27.9
2019-02-06T02:13:10.404Z,27.3
2019-02-06T02:13:57.147Z,28
2019-02-06T02:14:47.772Z,29
2019-02-06T02:15:37.794Z,29.8
2019-02-06T02:16:27.982Z,30.3
2019-02-06T02:17:18.216Z,30.7
2019-02-06T02:18:06.942Z,31.1
2019-02-06T02:18:59.937Z,31.3
2019-02-06T02:19:48.394Z,31.6
2019-02-06T02:20:38.569Z,31.9
2019-02-06T02:21:27.968Z,32.1
2019-02-06T02:22:18.953Z,32.4
2019-02-06T02:23:08.346Z,31.5
2019-02-06T02:23:59.073Z,31.3
2019-02-06T02:24:48.983Z,31.2
2019-02-06T02:25:38.346Z,31
2019-02-06T02:26:28.016Z,30.9
2019-02-06T02:27:18.623Z,30.9
2019-02-06T02:28:11.681Z,30.8
2019-02-06T02:28:58.774Z,30.7
2019-02-06T02:29:49.088Z,30.6
2019-02-06T02:30:39.214Z,30.6
2019-02-06T02:31:33.598Z,30.6
2019-02-06T02:32:19.029Z,30.4
2019-02-06T02:33:08.528Z,29.6
2019-02-06T02:33:58.318Z,28.9
2019-02-06T02:34:48.897Z,28.4
2019-02-06T02:35:39.269Z,28.1
2019-02-06T02:36:28.804Z,27.9
2019-02-06T02:37:22.643Z,27.7
2019-02-06T02:38:10.110Z,27.4
2019-02-06T02:38:59.190Z,28.4
2019-02-06T02:39:49.962Z,29.3
2019-02-06T02:40:40.895Z,30.1
2019-02-06T02:41:29.945Z,30.5
2019-02-06T02:42:19.130Z,30.9
2019-02-06T02:43:10.572Z,31.2
2019-02-06T02:44:00.398Z,31.4
2019-02-06T02:44:49.886Z,31.8
2019-02-06T02:45:39.905Z,32
2019-02-06T02:46:33.015Z,32.3
2019-02-06T02:47:20.759Z,32.1
2019-02-06T02:48:10.797Z,31.3
2019-02-06T02:49:00.952Z,31.2
2019-02-06T02:49:50.224Z,31.1
2019-02-06T02:50:40.084Z,30.9
2019-02-06T02:51:30.719Z,30.9
2019-02-06T02:52:21.392Z,30.8
2019-02-06T02:53:10.298Z,30.7
2019-02-06T02:54:00.897Z,30.6
2019-02-06T02:54:51.176Z,30.6
2019-02-06T02:55:44.510Z,30.5
2019-02-06T02:56:31.410Z,30.4
2019-02-06T02:57:21.059Z,30.3
2019-02-06T02:58:10.976Z,29.4
2019-02-06T02:59:01.204Z,28.8
2019-02-06T02:59:50.684Z,28.3
2019-02-06T03:00:41.046Z,28
2019-02-06T03:02:21.454Z,27.4
2019-02-06T03:03:11.210Z,27.6
2019-02-06T03:04:01.433Z,28.7
2019-02-06T03:04:54.136Z,29.6
2019-02-06T03:08:25.129Z,31.3
2019-02-06T03:09:13.721Z,31.6
2019-02-06T03:10:04.181Z,31.9
2019-02-06T03:10:53.261Z,32.1
2019-02-06T03:11:45.285Z,32.3
2019-02-06T03:12:33.586Z,31.6
2019-02-06T03:13:23.139Z,31.3
2019-02-06T03:14:14.063Z,31.1
2019-02-06T03:15:04.385Z,31.1
2019-02-06T03:15:54.473Z,30.9
2019-02-06T03:16:44.288Z,30.8
2019-02-06T03:17:37.181Z,30.8
2019-02-06T03:18:23.488Z,30.6
2019-02-06T03:19:14.715Z,30.6
2019-02-06T03:20:04.500Z,30.6
2019-02-06T03:20:55.725Z,30.5
2019-02-06T03:21:44.565Z,29.9
2019-02-06T03:22:38.475Z,29.1
2019-02-06T03:23:25.235Z,28.6
2019-02-06T03:24:14.540Z,28.3
2019-02-06T03:25:05.150Z,28
2019-02-06T03:26:47.245Z,27.5
2019-02-06T03:27:35.262Z,27.7
2019-02-06T03:28:25.031Z,28.7
2019-02-06T03:29:14.515Z,29.6
2019-02-06T03:30:04.504Z,30.2
2019-02-06T03:30:55.160Z,30.6
2019-02-06T03:31:45.383Z,30.9
2019-02-06T03:32:35.403Z,31.2
2019-02-06T03:33:26.357Z,31.5
2019-02-06T03:34:14.967Z,31.8
2019-02-06T03:35:05.508Z,31.9
2019-02-06T03:35:58.641Z,32.2
2019-02-06T03:36:48.854Z,32.1
2019-02-06T03:37:35.638Z,31.3
2019-02-06T03:38:25.777Z,31.1
2019-02-06T03:39:15.829Z,31
2019-02-06T03:40:05.819Z,30.9
2019-02-06T03:40:55.652Z,30.8
2019-02-06T03:41:48.048Z,30.7
2019-02-06T03:42:35.479Z,30.6
2019-02-06T03:43:26.202Z,30.6
2019-02-06T03:44:15.976Z,30.4
2019-02-06T03:45:07.804Z,30.4
2019-02-06T03:45:56.323Z,30.4
2019-02-06T03:46:46.738Z,29.8
2019-02-06T03:47:37.033Z,29
2019-02-06T03:48:26.418Z,28.5
2019-02-06T03:49:15.751Z,28.2
2019-02-06T03:50:06.379Z,27.9
2019-02-06T03:50:59.045Z,27.8
2019-02-06T03:51:47.161Z,27.3
2019-02-06T03:52:36.478Z,27.9
2019-02-06T03:53:26.510Z,28.9
2019-02-06T03:54:17.388Z,29.8
2019-02-06T03:55:06.947Z,30.3
2019-02-06T03:55:56.972Z,30.6
2019-02-06T03:56:47.436Z,30.9
2019-02-06T03:57:37.378Z,31.2
2019-02-06T03:58:26.575Z,31.5
2019-02-06T03:59:17.466Z,31.8
2019-02-06T04:00:10.570Z,31.9
2019-02-06T04:00:57.293Z,32.3
2019-02-06T04:01:47.343Z,32
2019-02-06T04:02:37.389Z,31.3
2019-02-06T04:03:27.761Z,31.1
2019-02-06T04:04:17.554Z,31
2019-02-06T04:05:07.554Z,30.9
2019-02-06T04:05:59.442Z,30.8
2019-02-06T04:07:09.349Z,30.8
2019-02-06T04:07:37.477Z,30.6
2019-02-06T04:08:27.559Z,30.6
2019-02-06T04:09:19.726Z,30.5
2019-02-06T04:10:07.604Z,30.5
2019-02-06T04:10:57.750Z,30.4
2019-02-06T04:11:48.465Z,29.7
2019-02-06T04:12:37.913Z,28.9
2019-02-06T04:13:28.189Z,28.5
2019-02-06T04:14:18.029Z,28.2
2019-02-06T04:15:11.494Z,27.9
2019-02-06T04:15:58.774Z,27.8
2019-02-06T04:16:48.849Z,27.4
2019-02-06T04:18:28.385Z,28.8
2019-02-06T04:19:18.074Z,29.8
2019-02-06T04:20:08.251Z,30.3
2019-02-06T04:20:59.204Z,30.6
2019-02-06T04:21:49.162Z,30.9
2019-02-06T04:22:38.034Z,31.3
2019-02-06T04:23:28.918Z,31.5
2019-02-06T04:24:21.693Z,31.7
2019-02-06T04:25:59.356Z,28.7
2019-02-06T04:27:40.452Z,26.4
2019-02-06T04:28:29.218Z,25.8
2019-02-06T04:29:19.300Z,25.7
2019-02-06T04:30:09.893Z,26.5
2019-02-06T04:30:59.838Z,27.7
2019-02-06T04:31:49.551Z,28.7
2019-02-06T04:32:39.052Z,29.6
2019-02-06T04:33:31.891Z,30.2
2019-02-06T06:06:22.046Z,27.6
2019-02-06T06:07:13.217Z,27.7
2019-02-06T06:08:05.609Z,28.7
2019-02-06T06:08:52.607Z,29.3
2019-02-06T06:09:42.622Z,29.7
2019-02-06T06:10:33.522Z,30.1
2019-02-06T06:11:24.177Z,30.4
2019-02-06T06:12:13.613Z,30.8
2019-02-06T06:13:03.092Z,31.1
2019-02-06T06:13:54.334Z,31.3
2019-02-06T06:14:44.019Z,31.6
2019-02-06T06:15:33.531Z,31.8
2019-02-06T06:16:23.912Z,32.1
2019-02-06T06:17:15.716Z,31.5
2019-02-06T06:18:04.000Z,31.1
2019-02-06T06:18:54.572Z,30.9
2019-02-06T06:19:44.364Z,30.9
2019-02-06T06:20:33.586Z,30.7
2019-02-06T06:21:24.156Z,30.6
2019-02-06T06:22:14.248Z,30.5
2019-02-06T06:23:06.674Z,30.4
2019-02-06T06:23:54.336Z,30.3
2019-02-06T06:24:44.114Z,30.1
2019-02-06T06:25:34.854Z,30.1
2019-02-06T06:26:24.521Z,29.9
2019-02-06T06:27:14.872Z,29.1
2019-02-06T06:28:05.217Z,28.4
2019-02-06T06:28:55.501Z,28.1
2019-02-06T06:29:45.085Z,27.8
2019-02-06T06:30:34.785Z,27.3
2019-02-06T06:32:17.650Z,28.8
2019-02-06T06:33:05.634Z,29.4
2019-02-06T06:33:54.563Z,29.8
2019-02-06T06:34:44.308Z,30.2
2019-02-06T06:35:34.597Z,30.5
2019-02-06T06:36:25.219Z,30.8
2019-02-06T06:37:15.740Z,31.1
2019-02-06T06:38:10.837Z,31.4
2019-02-06T06:38:55.497Z,31.6
2019-02-06T06:39:46.008Z,31.8
2019-02-06T06:40:34.723Z,32.1
2019-02-06T06:41:26.231Z,31.3
2019-02-06T06:42:15.130Z,31
2019-02-06T06:43:06.125Z,30.9
2019-02-06T06:43:56.014Z,30.8
2019-02-06T06:44:45.517Z,30.7
2019-02-06T06:45:35.592Z,30.6
2019-02-06T06:46:25.074Z,30.4
2019-02-06T06:47:18.619Z,30.3
2019-02-06T06:48:06.050Z,30.2
2019-02-06T06:48:55.812Z,30.2
2019-02-06T06:49:46.177Z,30.1
2019-02-06T06:50:38.016Z,29.6
2019-02-06T06:51:26.867Z,28.8
2019-02-06T06:52:16.439Z,28.3
2019-02-06T06:53:06.620Z,27.9
2019-02-06T06:53:56.126Z,27.6
2019-02-06T06:54:46.509Z,27.4
2019-02-06T06:55:39.756Z,27.3
2019-02-06T06:56:28.044Z,27.2
2019-02-06T06:57:19.251Z,27.1
2019-02-06T06:58:06.561Z,27.1
2019-02-06T06:58:56.886Z,27
2019-02-06T06:59:46.919Z,26.7
2019-02-06T07:00:36.336Z,26.8
2019-02-06T07:01:26.513Z,27.8
2019-02-06T07:02:18.170Z,28.6
2019-02-06T07:03:06.429Z,29.4
2019-02-06T07:03:57.175Z,29.2
2019-02-06T07:06:23.142Z,28.3
2019-02-06T07:07:12.855Z,28.1
2019-02-06T07:08:19.075Z,27.9
2019-02-06T07:08:53.230Z,27.9
2019-02-06T07:10:33.977Z,27.8
2019-02-06T07:11:25.163Z,27.7
2019-02-06T07:12:13.835Z,27.6
2019-02-06T07:13:03.361Z,27.6
2019-02-06T07:13:56.528Z,27.1
2019-02-06T07:14:43.695Z,26.6
2019-02-06T07:15:33.982Z,26.4
2019-02-06T07:16:23.470Z,26.2
2019-02-06T07:17:15.080Z,26.1
2019-02-06T07:18:03.681Z,26
2019-02-06T07:18:54.470Z,25.9
2019-02-06T07:19:44.394Z,25.8
2019-02-06T07:20:36.488Z,25.6
2019-02-06T07:21:23.824Z,26.1
2019-02-06T07:22:14.704Z,27.1
2019-02-06T07:23:03.419Z,28
2019-02-06T07:23:53.997Z,28.8
2019-02-06T07:24:44.319Z,29.6
2019-02-06T07:25:33.324Z,29.9
2019-02-06T07:26:25.565Z,30.3
2019-02-06T07:27:14.526Z,30.6
2019-02-06T07:28:04.965Z,30.4
2019-02-06T07:28:53.811Z,29.4
2019-02-06T07:29:47.101Z,28.1
2019-02-06T07:30:34.819Z,26.9
2019-02-06T07:31:25.461Z,25.6
2019-02-06T07:32:14.874Z,24.9
2019-02-06T07:33:04.177Z,24.9
2019-02-06T07:33:54.544Z,25.8
2019-02-06T07:34:45.053Z,26.9
2019-02-06T07:35:36.619Z,27.9
2019-02-06T07:36:24.319Z,28.8
2019-02-06T07:37:15.079Z,29.3
2019-02-06T07:38:05.002Z,28.6
2019-02-06T07:38:56.421Z,28.4
2019-02-06T07:39:44.938Z,28.2
2019-02-06T07:40:35.223Z,28.1
2019-02-06T07:41:26.249Z,28
2019-02-06T07:42:15.805Z,28
2019-02-06T07:43:06.107Z,27.9
2019-02-06T07:44:48.448Z,27.8
2019-02-06T07:45:36.063Z,27.7
2019-02-06T07:46:26.453Z,27.6
2019-02-06T07:47:16.155Z,27.1
2019-02-06T07:48:05.593Z,26.7
2019-02-06T07:48:56.045Z,26.4
2019-02-06T07:49:46.362Z,26.3
2019-02-06T07:50:37.219Z,26.1
2019-02-06T07:51:26.271Z,26
2019-02-06T07:52:15.791Z,25.9
2019-02-06T07:53:06.477Z,25.8
2019-02-06T07:53:59.221Z,25.6
2019-02-06T07:54:46.438Z,26.4
2019-02-06T07:55:36.239Z,27.4
2019-02-06T07:56:26.344Z,28.3
2019-02-06T07:57:16.318Z,29.1
2019-02-06T07:58:06.714Z,29.8
2019-02-06T07:58:58.153Z,30.1
2019-02-06T07:59:49.217Z,30.4
2019-02-06T08:00:36.697Z,30.7
2019-02-06T08:01:26.833Z,30.9
2019-02-06T08:02:16.495Z,30.4
2019-02-06T08:03:07.799Z,29.8
2019-02-06T08:03:56.544Z,29.3
2019-02-06T08:04:49.361Z,29.1
2019-02-06T08:05:37.895Z,28.9
2019-02-06T08:06:26.969Z,28.8
2019-02-06T08:07:17.295Z,28.7
2019-02-06T08:08:07.153Z,28.6
2019-02-06T08:08:59.490Z,28.5
2019-02-06T08:09:47.175Z,28.4
2019-02-06T08:10:37.595Z,28.3
2019-02-06T08:11:27.337Z,28.2
2019-02-06T08:12:18.212Z,27.6
2019-02-06T08:13:07.017Z,27.2
2019-02-06T08:13:57.740Z,26.9
2019-02-06T08:14:49.237Z,26.8
2019-02-06T08:15:37.583Z,26.6
2019-02-06T08:16:27.952Z,26.5
2019-02-06T08:17:17.158Z,26.4
2019-02-06T08:18:10.822Z,26.3
2019-02-06T08:18:58.397Z,26.2
2019-02-06T08:19:48.041Z,26.1
2019-02-06T08:20:37.679Z,25.8
2019-02-06T08:21:27.739Z,26.8
2019-02-06T08:23:08.182Z,28.6
2019-02-06T08:24:00.306Z,29.4
2019-02-06T08:24:48.789Z,30
2019-02-06T08:25:38.164Z,30.2
2019-02-06T08:26:28.120Z,30.5
2019-02-06T08:27:20.549Z,30.7
2019-02-06T08:28:08.266Z,30.9
2019-02-06T08:28:58.265Z,30.3
2019-02-06T08:29:49.136Z,29.6
2019-02-06T08:30:38.529Z,29.3
2019-02-06T08:31:29.636Z,29
2019-02-06T08:32:19.058Z,28.8
2019-02-06T08:33:10.731Z,28.7
2019-02-06T08:33:58.350Z,28.6
2019-02-06T08:34:49.220Z,28.5
2019-02-06T08:35:39.575Z,28.4
2019-02-06T08:36:30.516Z,28.3
2019-02-06T08:37:19.466Z,28.3
2019-02-06T08:38:10.105Z,28.3
2019-02-06T08:39:50.105Z,27.3
2019-02-06T08:40:39.760Z,27
2019-02-06T08:41:28.843Z,26.8
2019-02-06T08:42:21.793Z,26.6
2019-02-06T08:43:09.836Z,26.4
2019-02-06T08:44:02.938Z,26.3
2019-02-06T08:44:50.298Z,26.3
2019-02-06T08:45:41.263Z,26.2
2019-02-06T08:46:30.321Z,26.1
2019-02-06T08:47:20.205Z,25.8
2019-02-06T08:48:10.687Z,26.7
2019-02-06T08:49:00.475Z,27.7
2019-02-06T08:49:50.718Z,28.6
2019-02-06T08:50:40.563Z,29.2
2019-02-06T08:51:32.431Z,29.6
2019-02-06T08:52:20.202Z,29.9
2019-02-06T08:53:10.877Z,30.3
2019-02-06T08:54:00.662Z,30.5
2019-02-06T08:54:51.007Z,30.8
2019-02-06T08:55:40.387Z,30.9
2019-02-06T08:56:30.477Z,30.1
2019-02-06T08:57:22.322Z,30
2019-02-06T08:58:10.884Z,29.9
2019-02-06T08:59:01.152Z,29.9
2019-02-06T08:59:50.405Z,29.8
2019-02-06T09:00:44.005Z,29.7
2019-02-06T09:01:30.522Z,29.6
2019-02-06T09:02:20.112Z,29.5
2019-02-06T09:03:11.318Z,29.4
2019-02-06T09:04:00.961Z,29.4
2019-02-06T09:05:03.679Z,29.3
2019-02-06T09:05:40.612Z,28.7
2019-02-06T09:06:33.261Z,28.1
2019-02-06T09:07:21.312Z,27.5
2019-02-06T09:08:11.352Z,27.2
2019-02-06T09:09:07.156Z,26.9
2019-02-06T09:09:52.666Z,26.7
2019-02-06T09:10:42.036Z,26.6
2019-02-06T09:11:31.511Z,26.5
2019-02-06T09:12:21.171Z,26.1
2019-02-06T09:13:12.203Z,26.9
2019-02-06T09:14:02.236Z,27.9
2019-02-06T09:14:51.459Z,28.6
2019-02-06T09:15:44.534Z,29.1
2019-02-06T09:16:32.413Z,29.5
2019-02-06T09:17:22.541Z,29.8
2019-02-06T09:18:12.498Z,30.2
2019-02-06T09:19:03.261Z,30.5
2019-02-06T09:19:52.446Z,30.8
2019-02-06T09:20:42.113Z,31.1
2019-02-06T09:21:33.316Z,30.2
2019-02-06T09:22:23.073Z,30.1
2019-02-06T09:23:12.360Z,30
2019-02-06T09:24:02.815Z,29.9
2019-02-06T09:24:55.798Z,29.8
2019-02-06T09:25:43.014Z,29.8
2019-02-06T09:26:39.240Z,29.6
2019-02-06T09:27:22.898Z,29.6
2019-02-06T09:28:13.211Z,29.5
2019-02-06T09:29:02.547Z,29.4
2019-02-06T09:29:53.305Z,29.4
2019-02-06T09:30:45.163Z,29
2019-02-06T09:31:32.883Z,28.1
2019-02-06T09:32:23.312Z,27.6
2019-02-06T09:33:13.024Z,27.3
2019-02-06T09:34:04.273Z,27.1
2019-02-06T09:34:52.862Z,26.8
2019-02-06T09:35:43.241Z,26.7
2019-02-06T09:36:33.918Z,26.6
2019-02-06T09:37:23.595Z,26.1
2019-02-06T09:38:13.595Z,26.8
2019-02-06T09:39:56.852Z,28.6
2019-02-06T09:40:43.825Z,29.1
2019-02-06T09:41:34.299Z,29.6
2019-02-06T09:42:24.054Z,29.9
2019-02-06T09:43:13.704Z,30.3
2019-02-06T09:44:03.459Z,30.6
2019-02-06T09:44:54.640Z,30.6
2019-02-06T09:45:45.647Z,30.5
2019-02-06T09:46:33.919Z,30.3
2019-02-06T09:47:24.392Z,30.2
2019-02-06T09:48:14.532Z,30.1
2019-02-06T09:49:07.013Z,30
2019-02-06T09:49:57.564Z,29.9
2019-02-06T09:50:43.951Z,29.9
2019-02-06T09:51:34.954Z,29.8
2019-02-06T09:52:32.146Z,29.8
2019-02-06T09:53:14.096Z,29.8
2019-02-06T09:54:05.032Z,29.6
2019-02-06T09:54:56.814Z,29.6
2019-02-06T09:55:44.171Z,29.5
2019-02-06T09:56:34.714Z,29.4
2019-02-06T09:57:24.961Z,29.4
2019-02-06T09:58:16.141Z,29.3
2019-02-06T09:59:05.434Z,29.2
2019-02-06T09:59:54.736Z,29.1
2019-02-06T10:00:45.706Z,29
2019-02-06T10:01:35.213Z,28.9
2019-02-06T10:02:24.460Z,28.8
2019-02-06T10:03:14.576Z,28.8
2019-02-06T10:04:07.473Z,28.6
2019-02-06T10:04:55.605Z,28.6
2019-02-06T10:07:23.015Z,28.3
2019-02-06T10:08:13.291Z,28.1
2019-02-06T10:09:02.590Z,28
2019-02-06T10:09:59.027Z,27.9
2019-02-06T10:11:33.206Z,27.8
2019-02-06T10:12:22.993Z,27.7
2019-02-06T10:13:17.864Z,27.5
2019-02-06T10:14:04.393Z,27.4
2019-02-06T10:14:53.420Z,27.3
2019-02-06T10:15:43.527Z,27.3
2019-02-06T10:16:33.679Z,27.2
2019-02-06T10:17:23.394Z,27.1
2019-02-06T10:18:13.967Z,26.9
2019-02-06T10:19:06.120Z,26.9
2019-02-06T10:19:53.542Z,26.8
2019-02-06T10:20:43.574Z,26.7
2019-02-06T10:21:34.066Z,26.6
2019-02-06T10:22:24.247Z,26.5
2019-02-06T10:23:14.087Z,26.4
2019-02-06T10:24:03.265Z,26.4
2019-02-06T10:24:54.680Z,26.3
2019-02-06T10:25:44.116Z,26.3
2019-02-06T10:26:34.237Z,26.1
2019-02-06T10:27:27.289Z,26.1
2019-02-06T10:28:16.410Z,25.9
2019-02-06T10:29:03.665Z,25.9
2019-02-06T10:29:54.187Z,25.8
2019-02-06T10:30:44.799Z,25.8
2019-02-06T10:31:37.382Z,25.7
2019-02-06T10:32:24.656Z,25.6
2019-02-06T10:33:14.842Z,25.5
2019-02-06T10:34:05.606Z,25.4
2019-02-06T10:34:54.356Z,25.4
2019-02-06T10:35:44.910Z,25.3
2019-02-06T10:36:34.539Z,25.3
2019-02-06T10:37:30.176Z,25.2
2019-02-06T10:38:14.791Z,25.1
2019-02-06T10:39:04.839Z,25.1
2019-02-06T10:39:55.164Z,25
2019-02-06T10:40:45.509Z,24.9
2019-02-06T10:41:34.821Z,24.9
2019-02-06T10:42:25.094Z,24.8
2019-02-06T10:43:18.151Z,24.8
2019-02-06T10:44:05.158Z,24.7
2019-02-06T10:44:55.570Z,24.7
2019-02-06T10:45:45.833Z,24.6
2019-02-06T10:46:35.785Z,24.6
2019-02-06T10:47:25.966Z,24.5
2019-02-06T10:48:15.556Z,24.4
2019-02-06T10:49:05.278Z,24.4
2019-02-06T10:49:55.895Z,24.4
2019-02-06T10:50:45.773Z,24.3
2019-02-06T10:51:35.248Z,24.3
2019-02-06T10:52:28.651Z,24.2
2019-02-06T10:53:15.884Z,24.1
2019-02-06T10:54:06.450Z,24.1
2019-02-06T10:54:56.528Z,24.1
2019-02-06T10:55:45.685Z,24.1
2019-02-06T10:56:36.073Z,23.9
2019-02-06T10:57:25.690Z,23.9
2019-02-06T10:58:17.378Z,23.9
2019-02-06T10:59:06.805Z,23.9
2019-02-06T10:59:56.403Z,23.8
2019-02-06T11:00:47.053Z,23.8
2019-02-06T11:01:38.966Z,23.8
2019-02-06T11:02:25.987Z,23.7
2019-02-06T11:03:15.832Z,23.6
2019-02-06T11:04:06.243Z,23.6
2019-02-06T11:04:57.445Z,23.6
2019-02-06T11:05:46.515Z,23.6
2019-02-06T11:06:36.529Z,23.5
2019-02-06T11:07:28.403Z,23.4
2019-02-06T11:08:16.394Z,23.4
2019-02-06T11:09:06.995Z,23.4
2019-02-06T11:09:56.991Z,23.3
2019-02-06T11:10:49.098Z,23.3
2019-02-06T11:11:37.727Z,23.3
2019-02-06T11:12:30.679Z,23.3
2019-02-06T11:13:17.586Z,23.2
2019-02-06T11:14:08.124Z,23.2
2019-02-06T11:14:57.887Z,23.1
2019-02-06T11:16:40.204Z,23.1
2019-02-06T11:17:28.351Z,23.1
2019-02-06T11:18:17.301Z,23
2019-02-06T11:19:07.911Z,23
2019-02-06T11:19:58.816Z,22.9
2019-02-06T11:20:47.839Z,22.9
2019-02-06T11:21:38.051Z,22.9
2019-02-06T11:22:28.361Z,22.9
2019-02-06T11:23:19.026Z,22.8
2019-02-06T11:24:07.229Z,22.8
2019-02-06T11:24:57.847Z,22.8
2019-02-06T11:25:51.274Z,22.8
2019-02-06T11:26:38.713Z,22.7
2019-02-06T11:27:28.475Z,22.7
2019-02-06T11:28:17.210Z,22.7
2019-02-06T11:29:08.824Z,22.6
2019-02-06T11:29:58.547Z,22.6
2019-02-06T11:30:48.743Z,22.6
2019-02-06T11:31:39.161Z,22.6
2019-02-06T11:32:28.305Z,22.6
2019-02-06T11:33:19.151Z,22.5
2019-02-06T11:34:08.672Z,22.5
2019-02-06T11:35:03.950Z,22.4
2019-02-06T11:35:49.127Z,22.4
2019-02-06T11:36:38.905Z,22.4
2019-02-06T11:37:29.423Z,22.4
2019-02-06T11:38:17.342Z,22.3
2019-02-06T11:39:08.822Z,22.3
2019-02-06T11:40:05.704Z,22.3
2019-02-06T11:40:50.667Z,22.3
2019-02-06T11:41:38.895Z,22.3
2019-02-06T11:42:28.453Z,22.3
2019-02-06T11:43:19.028Z,22.2
2019-02-06T11:44:23.858Z,22.2
2019-02-06T11:45:00.253Z,22.1
2019-02-06T11:45:49.847Z,22.1
2019-02-06T11:46:39.812Z,22.1
2019-02-06T11:47:30.173Z,22.1
2019-02-06T11:48:20.182Z,22.1
2019-02-06T11:49:10.002Z,22.1
2019-02-06T11:50:02.285Z,22.1
2019-02-06T11:50:49.927Z,22
2019-02-06T11:51:40.446Z,21.9
2019-02-06T11:52:30.461Z,21.9
2019-02-06T11:53:23.035Z,21.9
2019-02-06T11:54:10.616Z,21.9
2019-02-06T11:55:00.508Z,21.9
2019-02-06T11:55:50.721Z,21.9
2019-02-06T11:56:40.228Z,21.9
2019-02-06T11:57:31.774Z,21.8
2019-02-06T11:58:20.356Z,21.8
2019-02-06T11:59:13.073Z,21.8
2019-02-06T12:00:00.572Z,21.8
2019-02-06T12:00:53.566Z,21.8
2019-02-06T12:01:40.611Z,21.8
2019-02-06T12:02:43.280Z,21.7
2019-02-06T12:03:23.460Z,21.7
2019-02-06T12:04:10.528Z,21.7
2019-02-06T12:05:02.261Z,21.7
2019-02-06T12:07:21.811Z,21.6
2019-02-06T12:08:17.334Z,21.6
2019-02-06T12:09:02.098Z,21.6
2019-02-06T12:09:51.974Z,21.6
2019-02-06T12:10:45.461Z,21.6
2019-02-06T12:11:33.127Z,21.6
2019-02-06T12:12:22.872Z,21.5
2019-02-06T12:13:13.216Z,21.5
2019-02-06T12:14:04.814Z,21.5
2019-02-06T12:14:52.485Z,21.4
2019-02-06T12:15:45.382Z,21.4
2019-02-06T12:16:36.080Z,21.4
2019-02-06T12:17:23.498Z,21.4
2019-02-06T12:18:13.241Z,21.4
2019-02-06T12:19:18.258Z,21.4
2019-02-06T12:19:56.383Z,21.4
2019-02-06T12:20:43.471Z,21.4
2019-02-06T12:21:33.558Z,21.3
2019-02-06T12:22:23.287Z,21.3
2019-02-06T12:23:14.281Z,21.3
2019-02-06T12:24:04.242Z,21.3
2019-02-06T12:24:53.465Z,21.3
2019-02-06T12:25:46.011Z,21.3
2019-02-06T12:26:34.131Z,21.3
2019-02-06T12:27:23.651Z,21.3
2019-02-06T12:28:14.581Z,21.3
2019-02-06T12:29:05.719Z,21.2
2019-02-06T12:29:54.902Z,21.2
2019-02-06T12:30:45.127Z,21.2
2019-02-06T12:31:34.502Z,21.2
2019-02-06T12:32:24.816Z,21.2
2019-02-06T12:38:14.276Z,21.1
2019-02-06T12:39:05.584Z,21.1
2019-02-06T12:39:55.398Z,21.1
2019-02-06T12:40:46.730Z,21.1
2019-02-06T12:41:35.448Z,21
2019-02-06T12:42:25.026Z,21.1
2019-02-06T12:43:17.428Z,21
2019-02-06T12:44:04.426Z,21
2019-02-06T12:44:54.458Z,21
2019-02-06T12:45:44.438Z,21
2019-02-06T12:46:37.933Z,21
2019-02-06T12:47:27.344Z,20.9
2019-02-06T12:48:14.783Z,20.9
2019-02-06T12:49:04.661Z,20.9
2019-02-06T12:49:55.288Z,20.9
2019-02-06T12:50:46.153Z,20.9
2019-02-06T12:51:35.883Z,20.9
2019-02-06T12:52:27.912Z,20.9
2019-02-06T12:53:16.040Z,20.9
2019-02-06T12:54:05.905Z,20.9
2019-02-06T12:54:56.393Z,20.9
2019-02-06T12:55:46.605Z,20.9
2019-02-06T12:56:36.332Z,20.9
2019-02-06T12:57:39.101Z,20.8
2019-02-06T12:58:16.310Z,20.8
2019-02-06T12:59:07.161Z,20.8
2019-02-06T12:59:55.988Z,20.8
2019-02-06T13:00:46.280Z,20.8
2019-02-06T13:01:38.369Z,20.8
2019-02-06T13:02:26.714Z,20.8
2019-02-06T13:03:16.667Z,20.8
2019-02-06T13:04:06.784Z,20.8
2019-02-06T13:04:56.614Z,20.8
2019-02-06T13:05:47.169Z,20.8